createdAt,value
2019-06-07T00:00:56.614Z,4.90
2019-06-07T00:03:29.926Z,3.33
2019-06-07T00:05:55.727Z,3.50
2019-06-07T00:08:28.560Z,3.90
2019-06-07T00:10:54.727Z,3.60
2019-06-07T00:13:23.403Z,4.33
2019-06-07T00:15:52.097Z,3.97
2019-06-07T00:18:25.668Z,3.67
2019-06-07T00:20:51.189Z,3.90
2019-06-07T00:23:22.596Z,3.80
2019-06-07T00:25:50.265Z,4.00
2019-06-07T00:28:20.137Z,4.57
2019-06-07T00:30:52.059Z,4.40
2019-06-07T00:33:24.092Z,3.80
2019-06-07T00:35:49.782Z,4.47
2019-06-07T00:38:21.425Z,4.23
2019-06-07T00:40:48.774Z,3.87
2019-06-07T00:43:20.376Z,4.40
2019-06-07T00:45:47.805Z,5.07
2019-06-07T00:48:26.509Z,4.57
2019-06-07T00:50:46.886Z,4.50
2019-06-07T00:53:21.631Z,4.03
2019-06-07T00:55:45.887Z,3.33
2019-06-07T00:58:15.493Z,4.10
2019-06-07T01:00:44.917Z,3.87
2019-06-07T01:03:14.983Z,3.97
2019-06-07T01:05:43.801Z,3.20
2019-06-07T01:08:14.853Z,4.10
2019-06-07T01:10:58.592Z,3.87
2019-06-07T01:13:15.476Z,3.63
2019-06-07T01:15:44.317Z,3.37
2019-06-07T01:18:35.790Z,3.73
2019-06-07T01:20:43.331Z,3.80
2019-06-07T01:23:51.691Z,3.17
2019-06-07T01:25:42.512Z,3.97
2019-06-07T01:28:11.178Z,2.87
2019-06-07T01:30:39.860Z,3.10
2019-06-07T01:33:08.525Z,2.80
2019-06-07T01:35:37.237Z,2.87
2019-06-07T01:38:05.876Z,3.60
2019-06-07T01:40:34.537Z,2.60
2019-06-07T01:43:03.212Z,2.90
2019-06-07T01:45:31.906Z,2.90
2019-06-07T01:48:00.567Z,2.90
2019-06-07T01:50:29.778Z,3.13
2019-06-07T01:52:58.691Z,2.70
2019-06-07T01:55:32.233Z,3.10
2019-06-07T01:57:57.688Z,3.60
2019-06-07T02:00:31.508Z,3.10
2019-06-07T02:02:58.510Z,3.80
2019-06-07T02:05:32.372Z,3.50
2019-06-07T02:08:00.819Z,3.03
2019-06-07T02:10:33.236Z,3.47
2019-06-07T02:12:59.820Z,3.30
2019-06-07T02:15:32.032Z,3.37
2019-06-07T02:17:58.876Z,3.07
2019-06-07T02:20:33.489Z,3.17
2019-06-07T02:22:57.975Z,3.00
2019-06-07T02:25:48.746Z,2.43
2019-06-07T02:28:25.787Z,3.00
2019-06-07T02:30:53.219Z,3.03
2019-06-07T02:32:57.794Z,4.00
2019-06-07T02:35:34.854Z,2.90
2019-06-07T02:37:57.029Z,3.20
2019-06-07T02:40:29.943Z,2.30
2019-06-07T02:42:56.533Z,2.47
2019-06-07T02:45:28.755Z,2.80
2019-06-07T02:47:55.551Z,2.20
2019-06-07T02:50:26.231Z,2.23
2019-06-07T02:52:54.720Z,3.40
2019-06-07T02:55:27.385Z,3.10
2019-06-07T02:57:54.212Z,2.63
2019-06-07T03:01:00.107Z,3.53
2019-06-07T03:03:16.999Z,2.33
2019-06-07T03:05:46.753Z,3.30
2019-06-07T03:08:16.851Z,2.90
2019-06-07T03:10:47.867Z,3.30
2019-06-07T03:13:21.167Z,2.90
2019-06-07T03:15:54.307Z,2.67
2019-06-07T03:18:41.683Z,2.60
2019-06-07T03:21:17.802Z,3.00
2019-06-07T03:23:46.426Z,3.87
2019-06-07T03:26:16.653Z,3.80
2019-06-07T03:28:45.265Z,3.03
2019-06-07T03:31:13.935Z,3.40
2019-06-07T03:33:45.414Z,2.77
2019-06-07T03:36:23.720Z,3.30
2019-06-07T03:38:43.448Z,2.90
2019-06-07T03:41:12.151Z,2.57
2019-06-07T03:43:40.954Z,2.60
2019-06-07T03:46:09.562Z,2.20
2019-06-07T03:48:41.118Z,2.63
2019-06-07T03:51:23.930Z,2.97
2019-06-07T03:53:40.744Z,2.73
2019-06-07T03:56:09.797Z,2.90
2019-06-07T03:58:49.038Z,7.00
2019-06-07T04:01:08.962Z,7.30
2019-06-07T04:03:46.414Z,4.47
2019-06-07T04:06:08.019Z,3.43
2019-06-07T04:08:42.110Z,6.07
2019-06-07T04:11:09.353Z,9.30
2019-06-07T04:13:42.576Z,6.17
2019-06-07T04:16:08.495Z,3.17
2019-06-07T04:18:41.879Z,3.13
2019-06-07T04:21:08.862Z,3.20
2019-06-07T04:23:45.110Z,3.63
2019-06-07T04:26:08.132Z,3.10
2019-06-07T04:31:07.158Z,2.87
2019-06-07T04:33:40.818Z,3.20
2019-06-07T04:36:06.196Z,2.70
2019-06-07T04:38:36.996Z,2.77
2019-06-07T04:41:05.566Z,4.43
2019-06-07T04:43:35.643Z,5.87
2019-06-07T04:46:04.929Z,6.70
2019-06-07T04:48:35.981Z,6.80
2019-06-07T04:51:05.357Z,6.30
2019-06-07T04:53:35.300Z,5.83
2019-06-07T04:56:04.501Z,5.73
2019-06-07T04:58:33.396Z,6.03
2019-06-07T05:01:03.756Z,5.27
2019-06-07T05:03:36.102Z,4.97
2019-06-07T05:06:02.994Z,5.50
2019-06-07T05:08:33.467Z,4.77
2019-06-07T05:11:02.032Z,4.60
2019-06-07T05:13:35.077Z,4.50
2019-06-07T05:16:03.057Z,5.40
2019-06-07T05:18:33.641Z,4.47
2019-06-07T05:21:01.913Z,5.57
2019-06-07T05:24:02.462Z,5.90
2019-06-07T05:26:01.108Z,4.40
2019-06-07T05:28:30.063Z,3.80
2019-06-07T05:31:04.606Z,4.60
2019-06-07T05:33:30.839Z,3.80
2019-06-07T05:35:59.764Z,3.40
2019-06-07T05:38:28.361Z,4.83
2019-06-07T05:40:57.028Z,4.87
2019-06-07T05:43:27.757Z,3.70
2019-06-07T05:45:56.488Z,2.93
2019-06-07T05:48:25.160Z,3.23
2019-06-07T05:50:56.798Z,4.10
2019-06-07T05:53:24.368Z,3.73
2019-06-07T05:55:53.148Z,2.93
2019-06-07T05:58:21.902Z,4.10
2019-06-07T06:00:51.106Z,4.13
2019-06-07T06:03:20.035Z,4.20
2019-06-07T06:05:54.877Z,3.60
2019-06-07T06:08:19.146Z,5.20
2019-06-07T06:10:48.865Z,3.30
2019-06-07T06:13:17.834Z,3.43
2019-06-07T06:16:00.612Z,4.40
2019-06-07T06:18:17.408Z,3.70
2019-06-07T06:21:12.789Z,3.80
2019-06-07T06:23:16.376Z,3.40
2019-06-07T06:25:55.649Z,3.73
2019-06-07T06:28:16.278Z,3.67
2019-06-07T06:30:47.933Z,3.97
2019-06-07T06:33:33.097Z,3.00
2019-06-07T06:35:49.361Z,3.47
2019-06-07T06:38:17.260Z,3.20
2019-06-07T06:40:48.927Z,3.27
2019-06-07T06:43:16.512Z,3.00
2019-06-07T06:45:49.697Z,3.10
2019-06-07T06:48:15.655Z,3.03
2019-06-07T06:50:46.604Z,3.27
2019-06-07T06:53:14.644Z,3.27
2019-06-07T06:55:43.965Z,2.60
2019-06-07T06:58:13.456Z,2.60
2019-06-07T07:00:56.807Z,2.57
2019-06-07T07:03:55.439Z,3.40
2019-06-07T07:05:53.877Z,2.57
2019-06-07T07:08:20.465Z,2.73
2019-06-07T07:10:52.640Z,2.70
2019-06-07T07:13:19.467Z,2.80
2019-06-07T07:15:55.113Z,3.07
2019-06-07T07:18:18.491Z,3.10
2019-06-07T07:20:48.312Z,2.57
2019-06-07T07:23:17.528Z,2.70
2019-06-07T07:25:52.760Z,2.57
2019-06-07T07:28:16.551Z,2.77
2019-06-07T07:30:47.562Z,2.40
2019-06-07T07:33:17.685Z,2.67
2019-06-07T07:36:09.716Z,3.07
2019-06-07T07:38:16.968Z,2.43
2019-06-07T07:41:01.548Z,2.60
2019-06-07T07:43:16.301Z,2.43
2019-06-07T07:45:50.584Z,2.73
2019-06-07T07:48:18.352Z,2.33
2019-06-07T07:50:49.050Z,3.33
2019-06-07T07:53:16.062Z,2.70
2019-06-07T07:55:45.753Z,3.27
2019-06-07T07:58:15.119Z,3.07
2019-06-07T08:01:00.691Z,3.47
2019-06-07T08:03:14.096Z,3.10
2019-06-07T08:05:45.107Z,2.20
2019-06-07T08:08:13.131Z,2.67
2019-06-07T08:10:41.787Z,5.10
2019-06-07T08:13:27.578Z,2.80
2019-06-07T08:15:40.824Z,3.00
2019-06-07T08:18:09.571Z,3.37
2019-06-07T08:20:38.186Z,3.63
2019-06-07T08:23:06.971Z,3.80
2019-06-07T08:25:35.598Z,3.10
2019-06-07T08:28:04.276Z,3.67
2019-06-07T08:30:50.093Z,3.50
2019-06-07T08:33:24.566Z,2.90
2019-06-07T08:40:34.635Z,2.70
2019-06-07T08:43:18.990Z,3.33
2019-06-07T08:45:34.264Z,2.73
2019-06-07T08:48:12.994Z,3.27
2019-06-07T08:50:33.435Z,3.17
2019-06-07T08:53:11.450Z,3.07
2019-06-07T08:55:32.446Z,2.87
2019-06-07T08:58:04.578Z,3.07
2019-06-07T09:00:47.905Z,3.67
2019-06-07T09:03:06.463Z,3.47
2019-06-07T09:05:32.235Z,3.50
2019-06-07T09:08:23.847Z,2.90
2019-06-07T09:10:31.241Z,2.90
2019-06-07T09:13:05.010Z,3.27
2019-06-07T09:15:30.278Z,3.50
2019-06-07T09:20:44.296Z,3.10
2019-06-07T09:23:17.210Z,3.37
2019-06-07T09:25:56.730Z,3.60
2019-06-07T09:28:20.063Z,3.47
2019-06-07T09:30:46.093Z,3.77
2019-06-07T09:33:14.839Z,4.47
2019-06-07T09:35:43.688Z,3.47
2019-06-07T09:38:24.274Z,3.23
2019-06-07T09:40:42.852Z,3.87
2019-06-07T09:45:41.848Z,3.23
2019-06-07T09:48:16.096Z,3.13
2019-06-07T09:50:41.050Z,3.80
2019-06-07T09:53:21.071Z,3.07
2019-06-07T09:55:40.309Z,3.70
2019-06-07T09:58:49.635Z,3.60
2019-06-07T10:00:41.947Z,3.83
2019-06-07T10:03:20.752Z,3.30
2019-06-07T10:05:40.469Z,4.40
2019-06-07T10:08:40.983Z,3.20
2019-06-07T10:10:42.739Z,3.60
2019-06-07T10:13:10.399Z,4.07
2019-06-07T10:15:39.614Z,3.40
2019-06-07T10:18:09.232Z,3.83
2019-06-07T10:20:38.714Z,3.43
2019-06-07T10:23:08.127Z,3.90
2019-06-07T10:25:36.997Z,3.37
2019-06-07T10:28:08.170Z,3.70
2019-06-07T10:30:36.300Z,3.87
2019-06-07T10:33:06.850Z,3.87
2019-06-07T10:35:35.932Z,3.60
2019-06-07T10:38:04.690Z,3.40
2019-06-07T10:40:33.375Z,3.90
2019-06-07T10:43:02.952Z,3.63
2019-06-07T10:45:33.406Z,4.20
2019-06-07T10:48:03.461Z,3.63
2019-06-07T10:50:32.444Z,4.13
2019-06-07T10:53:02.334Z,4.30
2019-06-07T10:55:31.245Z,3.97
2019-06-07T10:57:59.926Z,4.00
2019-06-07T11:00:29.039Z,4.00
2019-06-07T11:02:57.671Z,4.50
2019-06-07T11:05:41.758Z,3.40
2019-06-07T11:08:13.250Z,3.53
2019-06-07T11:10:40.826Z,4.07
2019-06-07T11:13:15.682Z,3.77
2019-06-07T11:15:46.398Z,4.60
2019-06-07T11:18:15.123Z,4.03
2019-06-07T11:20:43.804Z,3.70
2019-06-07T11:23:12.462Z,3.67
2019-06-07T11:25:41.122Z,3.83
2019-06-07T11:28:12.524Z,3.30
2019-06-07T11:30:41.334Z,3.70
2019-06-07T11:33:11.997Z,3.83
2019-06-07T11:35:40.522Z,3.80
2019-06-07T11:38:10.485Z,4.10
2019-06-07T11:40:39.394Z,3.97
2019-06-07T11:43:08.997Z,4.10
2019-06-07T11:45:37.611Z,3.57
2019-06-07T11:48:07.173Z,3.47
2019-06-07T11:50:36.214Z,3.80
2019-06-07T11:53:06.340Z,4.03
2019-06-07T11:55:35.395Z,4.00
2019-06-07T11:58:04.142Z,4.10
2019-06-07T12:00:34.286Z,3.10
2019-06-07T12:03:03.418Z,3.70
2019-06-07T12:05:32.068Z,2.97
2019-06-07T12:08:00.685Z,3.37
2019-06-07T12:10:41.778Z,3.47
2019-06-07T12:13:01.183Z,4.63
2019-06-07T12:15:29.838Z,3.70
2019-06-07T12:17:58.467Z,3.47
2019-06-07T12:20:27.202Z,3.43
2019-06-07T12:22:55.822Z,3.50
2019-06-07T12:25:25.230Z,3.20
2019-06-07T12:27:53.913Z,3.60
2019-06-07T12:30:27.757Z,3.23
2019-06-07T12:32:52.948Z,3.53
2019-06-07T12:38:18.890Z,3.60
2019-06-07T12:40:57.315Z,3.37
2019-06-07T12:43:21.202Z,3.63
2019-06-07T12:45:49.882Z,3.47
2019-06-07T12:48:21.308Z,3.57
2019-06-07T12:50:48.904Z,3.17
2019-06-07T12:53:17.907Z,3.97
2019-06-07T12:55:46.791Z,3.40
2019-06-07T12:58:15.913Z,2.93
2019-06-07T13:00:44.766Z,3.30
2019-06-07T13:03:14.235Z,3.27
2019-06-07T13:05:43.076Z,3.87
2019-06-07T13:08:18.033Z,3.70
2019-06-07T13:10:46.745Z,3.73
2019-06-07T13:13:15.791Z,3.57
2019-06-07T13:15:44.640Z,4.90
2019-06-07T13:18:15.128Z,3.40
2019-06-07T13:20:43.792Z,3.20
2019-06-07T13:23:12.467Z,3.30
2019-06-07T13:25:46.135Z,3.40
2019-06-07T13:28:12.955Z,7.30
2019-06-07T13:30:41.547Z,3.43
2019-06-07T13:33:10.167Z,3.33
2019-06-07T13:35:38.901Z,4.83
2019-06-07T13:38:07.519Z,4.13
2019-06-07T13:40:36.144Z,3.97
2019-06-07T13:43:05.483Z,3.90
2019-06-07T13:45:34.162Z,5.20
2019-06-07T13:48:02.858Z,5.20
2019-06-07T13:50:31.556Z,4.37
2019-06-07T13:53:00.172Z,4.23
2019-06-07T13:55:28.886Z,3.53
2019-06-07T13:57:57.495Z,4.10
2019-06-07T14:00:28.422Z,4.30
2019-06-07T14:02:57.179Z,4.73
2019-06-07T14:05:27.269Z,5.33
2019-06-07T14:07:56.010Z,5.57
2019-06-07T14:10:25.573Z,3.33
2019-06-07T14:12:54.385Z,4.27
2019-06-07T14:15:24.361Z,3.93
2019-06-07T14:17:53.382Z,4.57
2019-06-07T14:20:26.760Z,3.57
2019-06-07T14:22:54.545Z,3.27
2019-06-07T14:25:23.381Z,4.57
2019-06-07T14:27:51.995Z,3.17
2019-06-07T14:30:32.644Z,3.97
2019-06-07T14:33:02.217Z,3.60
2019-06-07T14:35:31.055Z,3.30
2019-06-07T14:37:59.741Z,3.03
2019-06-07T14:40:30.034Z,3.83
2019-06-07T14:42:58.763Z,3.10
2019-06-07T14:45:29.463Z,3.20
2019-06-07T14:47:58.424Z,2.73
2019-06-07T14:50:28.191Z,3.33
2019-06-07T14:52:56.987Z,4.47
2019-06-07T14:55:26.849Z,3.27
2019-06-07T14:57:55.703Z,3.10
2019-06-07T15:00:30.510Z,3.97
2019-06-07T15:03:03.219Z,3.80
2019-06-07T15:05:32.864Z,3.37
2019-06-07T15:08:01.786Z,3.17
2019-06-07T15:10:31.900Z,4.03
2019-06-07T15:13:00.821Z,3.40
2019-06-07T15:15:36.336Z,3.10
2019-06-07T15:18:05.019Z,3.60
2019-06-07T15:20:34.090Z,3.57
2019-06-07T15:23:06.087Z,3.27
2019-06-07T15:25:37.078Z,3.60
2019-06-07T15:28:07.228Z,3.70
2019-06-07T15:30:39.657Z,3.47
2019-06-07T15:33:17.238Z,3.37
2019-06-07T15:35:45.941Z,3.30
2019-06-07T15:38:14.570Z,3.03
2019-06-07T15:40:43.292Z,3.30
2019-06-07T15:43:11.997Z,3.40
2019-06-07T15:45:40.639Z,3.33
2019-06-07T15:48:09.265Z,3.07
2019-06-07T15:50:38.342Z,3.13
2019-06-07T15:53:07.183Z,3.40
2019-06-07T15:55:41.015Z,3.40
2019-06-07T15:58:06.314Z,3.60
2019-06-07T16:00:35.508Z,4.37
2019-06-07T16:03:04.381Z,4.10
2019-06-07T16:05:34.217Z,3.77
2019-06-07T16:08:03.024Z,3.27
2019-06-07T16:10:32.580Z,3.10
2019-06-07T16:13:03.173Z,3.30
2019-06-07T16:15:34.715Z,3.90
2019-06-07T16:18:03.710Z,2.90
2019-06-07T16:20:33.217Z,3.80
2019-06-07T16:23:02.183Z,3.00
2019-06-07T16:25:30.831Z,3.30
2019-06-07T16:27:59.605Z,3.23
2019-06-07T16:30:28.289Z,3.13
2019-06-07T16:32:56.921Z,3.37
2019-06-07T16:35:25.595Z,3.97
2019-06-07T16:37:54.277Z,3.50
2019-06-07T16:40:23.309Z,3.40
2019-06-07T16:42:56.499Z,3.57
2019-06-07T16:45:26.805Z,4.17
2019-06-07T16:47:55.459Z,4.70
2019-06-07T16:50:26.468Z,4.90
2019-06-07T16:52:55.170Z,3.80
2019-06-07T16:55:23.798Z,4.20
2019-06-07T16:57:52.494Z,4.37
2019-06-07T17:00:21.704Z,3.87
2019-06-07T17:02:51.834Z,3.70
2019-06-07T17:05:20.534Z,3.70
2019-06-07T17:07:49.260Z,4.43
2019-06-07T17:10:18.079Z,3.20
2019-06-07T17:12:47.032Z,3.50
2019-06-07T17:15:17.257Z,3.97
2019-06-07T17:17:47.057Z,3.63
2019-06-07T17:20:17.579Z,4.33
2019-06-07T17:22:47.738Z,4.10
2019-06-07T17:25:17.982Z,4.37
2019-06-07T17:27:53.535Z,3.90
2019-06-07T17:30:23.762Z,4.63
2019-06-07T17:32:58.668Z,3.90
2019-06-07T17:35:22.869Z,3.67
2019-06-07T17:37:51.650Z,4.30
2019-06-07T17:40:22.996Z,3.73
2019-06-07T17:42:51.696Z,3.50
2019-06-07T17:45:21.351Z,3.90
2019-06-07T17:47:52.064Z,3.93
2019-06-07T17:50:21.424Z,4.07
2019-06-07T17:52:50.250Z,4.53
2019-06-07T17:55:19.118Z,4.13
2019-06-07T17:57:52.697Z,5.33
2019-06-07T18:00:29.586Z,4.03
2019-06-07T18:02:53.037Z,4.37
2019-06-07T18:05:22.502Z,4.10
2019-06-07T18:07:53.866Z,4.60
2019-06-07T18:10:37.624Z,4.70
2019-06-07T18:13:06.663Z,5.10
2019-06-07T18:15:51.497Z,4.80
2019-06-07T18:18:16.951Z,4.53
2019-06-07T18:20:47.006Z,4.90
2019-06-07T18:23:16.092Z,4.97
2019-06-07T18:25:44.768Z,4.93
2019-06-07T18:28:13.498Z,4.40
2019-06-07T18:30:42.186Z,4.40
2019-06-07T18:33:12.437Z,5.20
2019-06-07T18:35:41.359Z,4.60
2019-06-07T18:38:11.466Z,5.50
2019-06-07T18:40:47.582Z,5.57
2019-06-07T18:43:16.203Z,4.50
2019-06-07T18:45:44.911Z,4.80
2019-06-07T18:48:13.562Z,5.20
2019-06-07T18:50:42.285Z,4.90
2019-06-07T18:53:10.934Z,5.33
2019-06-07T18:55:39.616Z,4.90
2019-06-07T18:58:08.305Z,4.60
2019-06-07T19:00:37.152Z,5.20
2019-06-07T19:03:05.910Z,4.70
2019-06-07T19:05:34.562Z,4.60
2019-06-07T19:08:03.290Z,5.00
2019-06-07T19:10:33.498Z,4.67
2019-06-07T19:13:02.257Z,5.27
2019-06-07T19:15:30.906Z,5.70
2019-06-07T19:18:00.939Z,5.40
2019-06-07T19:20:31.372Z,5.90
2019-06-07T19:23:03.254Z,4.83
2019-06-07T19:25:31.949Z,5.73
2019-06-07T19:28:01.163Z,5.50
2019-06-07T19:30:29.930Z,5.77
2019-06-07T19:32:59.667Z,5.43
2019-06-07T19:35:28.420Z,5.63
2019-06-07T19:37:57.885Z,5.23
2019-06-07T19:40:26.664Z,5.00
2019-06-07T19:42:56.418Z,5.40
2019-06-07T19:45:30.201Z,4.97
2019-06-07T19:47:56.555Z,4.87
2019-06-07T19:50:25.338Z,7.23
2019-06-07T19:52:55.001Z,5.10
2019-06-07T19:55:23.893Z,5.30
2019-06-07T19:57:53.334Z,5.73
2019-06-07T20:00:23.948Z,5.57
2019-06-07T20:02:53.711Z,6.13
2019-06-07T20:05:22.375Z,5.83
2019-06-07T20:07:51.151Z,6.77
2019-06-07T20:10:20.382Z,5.60
2019-06-07T20:12:49.122Z,5.00
2019-06-07T20:15:28.570Z,4.97
2019-06-07T20:17:48.992Z,5.70
2019-06-07T20:20:17.817Z,5.27
2019-06-07T20:22:46.515Z,4.90
2019-06-07T20:25:15.606Z,6.80
2019-06-07T20:27:46.325Z,5.10
2019-06-07T20:30:15.129Z,6.07
2019-06-07T20:32:43.851Z,5.50
2019-06-07T20:35:12.461Z,5.93
2019-06-07T20:37:41.161Z,5.97
2019-06-07T20:40:22.096Z,5.47
2019-06-07T20:42:41.806Z,5.10
2019-06-07T20:45:10.653Z,6.37
2019-06-07T20:47:39.275Z,6.20
2019-06-07T20:50:08.932Z,5.67
2019-06-07T20:52:39.389Z,6.17
2019-06-07T20:55:09.854Z,5.70
2019-06-07T20:57:38.667Z,5.40
2019-06-07T21:00:14.201Z,4.87
2019-06-07T21:02:39.418Z,5.20
2019-06-07T21:05:09.580Z,5.50
2019-06-07T21:07:38.714Z,6.20
2019-06-07T21:10:10.414Z,6.17
2019-06-07T21:12:39.041Z,5.70
2019-06-07T21:15:14.139Z,5.97
2019-06-07T21:17:41.285Z,6.00
2019-06-07T21:20:14.246Z,6.03
2019-06-07T21:22:41.140Z,5.33
2019-06-07T21:25:11.544Z,6.10
2019-06-07T21:27:40.488Z,5.93
2019-06-07T21:30:09.777Z,6.27
2019-06-07T21:32:38.580Z,6.87
2019-06-07T21:35:09.987Z,5.13
2019-06-07T21:37:39.029Z,5.70
2019-06-07T21:40:08.318Z,6.53
2019-06-07T21:42:39.162Z,7.03
2019-06-07T21:45:11.543Z,6.20
2019-06-07T21:47:41.761Z,5.93
2019-06-07T21:50:11.058Z,6.33
2019-06-07T21:52:39.814Z,5.73
2019-06-07T21:55:09.062Z,6.27
2019-06-07T21:57:38.592Z,6.40
2019-06-07T22:00:13.415Z,6.23
2019-06-07T22:02:42.303Z,6.30
2019-06-07T22:05:11.818Z,6.03
2019-06-07T22:07:40.598Z,6.13
2019-06-07T22:10:10.048Z,6.67
2019-06-07T22:12:38.864Z,5.80
2019-06-07T22:15:27.358Z,6.80
2019-06-07T22:17:38.483Z,6.20
2019-06-07T22:20:08.665Z,7.30
2019-06-07T22:22:37.498Z,7.10
2019-06-07T22:25:09.419Z,7.00
2019-06-07T22:27:38.152Z,6.90
2019-06-07T22:30:08.592Z,7.10
2019-06-07T22:32:37.350Z,6.90
2019-06-07T22:35:06.941Z,6.70
2019-06-07T22:37:35.860Z,6.30
2019-06-07T22:40:08.529Z,7.17
2019-06-07T22:42:37.628Z,6.23
2019-06-07T22:45:08.118Z,7.00
2019-06-07T22:47:36.875Z,7.03
2019-06-07T22:50:10.617Z,7.20
2019-06-07T22:52:39.731Z,7.83
2019-06-07T22:55:10.093Z,6.47
2019-06-07T22:57:55.920Z,7.70
2019-06-07T23:00:27.307Z,6.93
2019-06-07T23:02:56.043Z,7.47
2019-06-07T23:05:24.720Z,6.50
2019-06-07T23:07:53.451Z,6.53
2019-06-07T23:10:22.073Z,6.63
2019-06-07T23:12:50.760Z,6.53
2019-06-07T23:15:20.882Z,6.17
2019-06-07T23:17:49.877Z,6.50
2019-06-07T23:20:20.145Z,7.10
2019-06-07T23:22:49.033Z,7.53
2019-06-07T23:25:22.931Z,8.83
2019-06-07T23:27:49.632Z,8.27
2019-06-07T23:30:18.916Z,7.43
2019-06-07T23:32:47.529Z,8.70
2019-06-07T23:35:18.967Z,8.60
2019-06-07T23:37:46.673Z,8.00
2019-06-07T23:40:15.453Z,7.70
2019-06-07T23:42:44.080Z,7.73
2019-06-07T23:45:13.792Z,7.70
2019-06-07T23:47:42.666Z,7.60
2019-06-07T23:50:11.617Z,7.50
2019-06-07T23:52:40.335Z,7.80
2019-06-07T23:55:09.286Z,7.90
2019-06-07T23:57:37.967Z,7.03
